Time;durP1;ratioP1;P1;durP2;ratioP2;P2;SDS_P1;SDS_P2;PMS_P1;PMS_P2;Temp;Humidity;BMP_temperature;BMP_pressure;BME280_temperature;BME280_humidity;BME280_pressure;Samples;Min_cycle;Max_cycle;Signal;HPM_P1;HPM_P2
2023/08/10 00:02:05;;;;;;;3.70;2.40;;;;;;;19.21;64.02;100652.47;5441282;32;35308;-69
2023/08/10 00:05:08;;;;;;;6.00;2.45;;;;;;;19.64;62.56;100646.78;5436117;32;35400;-69
2023/08/10 00:08:11;;;;;;;5.03;2.20;;;;;;;19.27;63.95;100651.19;5425850;32;34538;-69
2023/08/10 00:11:14;;;;;;;3.55;2.30;;;;;;;19.50;63.53;100649.53;5431598;32;34646;-77
2023/08/10 00:14:16;;;;;;;4.00;2.53;;;;;;;19.71;62.40;100649.84;5427946;32;35325;-70
2023/08/10 00:17:18;;;;;;;4.43;2.40;;;;;;;18.94;65.38;100655.28;5445866;32;34316;-76
2023/08/10 00:20:20;;;;;;;3.70;2.40;;;;;;;19.52;63.54;100652.94;5442293;32;35029;-77
2023/08/10 00:23:23;;;;;;;5.35;2.42;;;;;;;19.13;64.84;100656.66;5446178;32;34910;-75
2023/08/10 00:26:25;;;;;;;6.72;2.85;;;;;;;19.35;64.67;100648.81;5428166;32;35214;-70
2023/08/10 00:29:27;;;;;;;5.60;2.75;;;;;;;19.69;63.26;100654.41;5427242;32;35146;-69
2023/08/10 00:32:29;;;;;;;4.85;2.30;;;;;;;19.43;64.34;100653.59;5445781;32;34877;-70
2023/08/10 00:35:31;;;;;;;4.95;2.58;;;;;;;19.24;65.19;100656.72;5441905;32;34282;-78
2023/08/10 00:38:41;;;;;;;8.63;3.20;;;;;;;19.22;65.23;100653.31;5445140;32;35563;-76
2023/08/10 00:41:43;;;;;;;4.63;2.27;;;;;;;18.53;67.94;100647.41;5428616;32;34531;-75
2023/08/10 00:44:45;;;;;;;;;;;;;;;18.94;67.11;100649.09;5443795;32;34616;-69
2023/08/10 00:47:48;;;;;;;5.30;2.80;;;;;;;19.47;65.07;100642.59;5440792;32;35422;-78
2023/08/10 00:50:51;;;;;;;5.25;2.80;;;;;;;18.44;69.70;100637.41;5439514;32;35491;-76
2023/08/10 00:53:53;;;;;;;;;;;;;;;18.59;69.73;100643.50;5432189;32;35214;-69
2023/08/10 00:56:55;;;;;;;4.90;2.90;;;;;;;19.27;66.01;100648.53;5441368;32;34686;-69
2023/08/10 00:59:58;;;;;;;5.22;3.17;;;;;;;19.12;67.15;100639.78;5446126;32;35632;-78
2023/08/10 01:03:00;;;;;;;4.57;2.85;;;;;;;19.06;67.63;100644.69;5440828;32;35145;-76
2023/08/10 01:06:10;;;;;;;6.53;3.20;;;;;;;18.39;70.25;100642.19;5442720;32;35509;-69
2023/08/10 01:10:06;;;;;;;5.77;3.30;;;;;;;18.45;70.47;100648.91;5429513;32;35654;-76
2023/08/10 01:14:08;;;;;;;6.53;3.23;;;;;;;18.45;71.21;100643.59;5375596;32;34142;-76
2023/08/10 01:17:23;;;;;;;5.93;3.28;;;;;;;18.83;68.70;100636.50;5395927;32;34959;-75
2023/08/10 01:20:28;;;;;;;6.25;3.05;;;;;;;18.52;70.48;100647.53;5427477;32;35202;-76
2023/08/10 01:23:46;;;;;;;4.27;3.03;;;;;;;18.04;72.65;100649.88;5441417;32;34594;-77
2023/08/10 01:26:49;;;;;;;4.87;3.33;;;;;;;18.32;71.91;100652.38;5430924;32;34440;-76
2023/08/10 01:29:51;;;;;;;7.05;3.42;;;;;;;18.45;70.97;100647.09;5441153;32;35059;-69
2023/08/10 01:32:53;;;;;;;4.45;2.97;;;;;;;18.39;71.13;100650.16;5440228;32;34830;-76
2023/08/10 01:35:55;;;;;;;6.00;3.47;;;;;;;17.98;73.49;100659.09;5429662;32;34937;-76
2023/08/10 01:38:58;;;;;;;5.70;3.30;;;;;;;18.22;72.36;100655.75;5441224;32;35388;-68
2023/08/10 01:42:02;;;;;;;6.20;3.40;;;;;;;18.11;72.73;100656.50;5441379;32;35192;-69
2023/08/10 01:45:05;;;;;;;4.78;3.10;;;;;;;18.33;71.46;100654.09;5441072;32;35466;-75
2023/08/10 01:48:20;;;;;;;7.10;3.50;;;;;;;18.22;72.56;100653.09;5439400;32;35365;-76
2023/08/10 01:51:23;;;;;;;7.67;3.70;;;;;;;17.97;73.44;100645.88;5426732;32;34738;-77
2023/08/10 01:54:26;;;;;;;5.90;3.47;;;;;;;18.40;72.04;100650.06;5427087;32;34954;-75
2023/08/10 01:57:29;;;;;;;5.93;3.85;;;;;;;18.90;69.68;100656.44;5418260;32;34647;-76
2023/08/10 02:00:33;;;;;;;6.18;3.92;;;;;;;18.87;68.98;100651.34;5440822;32;34801;-75
2023/08/10 02:03:36;;;;;;;8.17;4.50;;;;;;;18.16;72.76;100656.16;5418424;32;34824;-69
2023/08/10 02:06:40;;;;;;;8.80;4.40;;;;;;;18.26;72.16;100644.81;5426425;32;35072;-78
2023/08/10 02:09:42;;;;;;;7.37;4.47;;;;;;;17.78;75.32;100652.44;5440231;32;34172;-69
2023/08/10 02:12:45;;;;;;;8.27;4.60;;;;;;;18.08;74.00;100646.87;5429160;32;34052;-76
2023/08/10 02:15:47;;;;;;;8.02;4.47;;;;;;;17.93;74.99;100650.56;5423761;32;34819;-68
2023/08/10 02:18:49;;;;;;;7.72;4.60;;;;;;;18.47;71.44;100641.66;5433058;32;34862;-68
2023/08/10 02:21:51;;;;;;;10.53;4.37;;;;;;;18.21;72.64;100652.25;5441097;32;34945;-76
2023/08/10 02:24:53;;;;;;;8.30;4.82;;;;;;;17.90;74.71;100652.56;5429746;32;34685;-69
2023/08/10 02:27:56;;;;;;;8.83;4.60;;;;;;;18.40;72.56;100644.72;5437442;32;34781;-69
2023/08/10 02:30:58;;;;;;;9.23;4.50;;;;;;;18.45;72.43;100643.59;5440599;32;34679;-68
2023/08/10 02:34:01;;;;;;;;;;;;;;;18.35;72.09;100646.87;5427862;32;36153;-75
2023/08/10 02:37:03;;;;;;;9.77;4.37;;;;;;;18.62;71.76;100644.16;5440481;32;34377;-69
2023/08/10 02:40:12;;;;;;;7.47;4.32;;;;;;;18.33;72.21;100640.78;5431379;32;36113;-75
2023/08/10 02:43:15;;;;;;;8.20;4.47;;;;;;;18.16;72.73;100643.72;5439389;32;34064;-74
2023/08/10 02:46:17;;;;;;;8.88;4.53;;;;;;;18.26;72.53;100644.81;5441403;32;34471;-77
2023/08/10 02:49:20;;;;;;;9.75;4.90;;;;;;;18.20;73.20;100644.37;5423386;32;34725;-76
2023/08/10 02:52:22;;;;;;;8.20;4.70;;;;;;;18.14;72.93;100638.50;5439278;32;34576;-75
2023/08/10 02:55:24;;;;;;;10.00;4.82;;;;;;;17.87;73.75;100643.00;5444859;32;35560;-68
2023/08/10 02:58:26;;;;;;;8.18;4.82;;;;;;;17.95;74.05;100650.47;5426010;32;34243;-76
2023/08/10 03:01:29;;;;;;;10.82;5.50;;;;;;;17.99;74.17;100654.63;5445044;32;34994;-69
2023/08/10 03:04:31;;;;;;;15.38;6.07;;;;;;;18.30;73.05;100650.81;5440437;32;34981;-70
2023/08/10 03:07:33;;;;;;;10.10;5.57;;;;;;;18.46;72.08;100647.94;5444075;32;34312;-70
2023/08/10 03:10:35;;;;;;;10.10;6.07;;;;;;;18.52;71.04;100651.03;5439723;32;35949;-68
2023/08/10 03:13:37;;;;;;;9.73;6.10;;;;;;;17.77;75.07;100648.03;5440153;32;34758;-76
2023/08/10 03:16:40;;;;;;;12.10;6.45;;;;;;;17.66;75.91;100655.84;5415279;32;35754;-75
2023/08/10 03:19:42;;;;;;;10.70;6.70;;;;;;;18.44;72.65;100649.88;5426067;32;34435;-76
2023/08/10 03:22:45;;;;;;;11.10;6.95;;;;;;;18.45;72.86;100641.78;5443979;32;37014;-69
2023/08/10 03:25:47;;;;;;;10.38;7.05;;;;;;;18.10;73.17;100647.66;5439237;32;34176;-69
2023/08/10 03:28:49;;;;;;;10.60;7.10;;;;;;;18.12;74.26;100653.72;5439815;32;34245;-76
2023/08/10 03:31:51;;;;;;;11.93;7.40;;;;;;;17.77;75.56;100652.50;5413842;32;34494;-69
2023/08/10 03:34:54;;;;;;;12.55;7.25;;;;;;;17.96;75.58;100649.50;5412465;32;35097;-78
2023/08/10 03:37:56;;;;;;;10.60;7.00;;;;;;;17.99;74.33;100654.63;5443897;32;35091;-76
2023/08/10 03:40:58;;;;;;;13.10;7.62;;;;;;;17.60;76.75;100661.56;5439740;32;35334;-69
2023/08/10 03:44:01;;;;;;;11.40;6.65;;;;;;;17.89;75.32;100659.69;5431861;32;34316;-76
2023/08/10 03:47:03;;;;;;;16.50;8.25;;;;;;;18.13;73.85;100665.22;5412080;32;34627;-69
2023/08/10 03:50:06;;;;;;;11.63;6.80;;;;;;;18.97;70.12;100666.66;5439519;32;35707;-75
2023/08/10 03:53:08;;;;;;;10.17;6.30;;;;;;;18.95;69.48;100672.09;5441625;32;34320;-69
2023/08/10 03:56:10;;;;;;;10.98;6.65;;;;;;;17.86;74.22;100681.16;5440655;32;35349;-75
2023/08/10 03:59:13;;;;;;;13.20;6.78;;;;;;;18.54;71.16;100685.53;5445237;32;34262;-76
2023/08/10 04:02:16;;;;;;;16.00;7.30;;;;;;;17.69;75.09;100695.50;5423872;32;34474;-69
2023/08/10 04:05:19;;;;;;;11.25;6.62;;;;;;;17.36;76.92;100693.19;5445609;32;34686;-70
2023/08/10 04:08:21;;;;;;;11.80;6.65;;;;;;;17.54;76.13;100694.69;5440675;32;35768;-77
2023/08/10 04:11:24;;;;;;;11.70;7.20;;;;;;;17.94;74.04;100700.12;5430254;32;34094;-69
2023/08/10 04:14:28;;;;;;;11.63;7.20;;;;;;;18.17;73.12;100697.81;5425405;32;36044;-69
2023/08/10 04:17:31;;;;;;;10.77;6.60;;;;;;;17.94;74.08;100699.28;5425613;32;34988;-70
2023/08/10 04:20:33;;;;;;;13.82;6.80;;;;;;;18.47;71.95;100694.87;5445929;32;34095;-77
2023/08/10 04:23:35;;;;;;;13.38;6.53;;;;;;;18.96;68.98;100703.09;5415140;32;34520;-77
2023/08/10 04:26:37;;;;;;;10.33;6.37;;;;;;;18.45;70.79;100691.47;5445728;32;35422;-69
2023/08/10 04:29:44;;;;;;;10.50;6.07;;;;;;;18.32;71.90;100707.41;5441312;32;35233;-69
2023/08/10 04:32:46;;;;;;;10.60;6.10;;;;;;;19.25;68.18;100702.88;5442482;32;34358;-77
2023/08/10 04:35:49;;;;;;;;;;;;;;;18.44;70.60;100701.28;5429053;32;34531;-76
2023/08/10 04:38:51;;;;;;;11.12;5.78;;;;;;;18.59;69.83;100704.72;5441886;32;35455;-75
2023/08/10 04:41:54;;;;;;;9.38;5.07;;;;;;;19.04;68.15;100703.41;5443950;32;34593;-69
2023/08/10 04:44:56;;;;;;;8.70;5.07;;;;;;;18.72;69.34;100710.09;5426447;32;34609;-75
2023/08/10 04:47:58;;;;;;;10.40;5.50;;;;;;;19.24;67.12;100704.69;5442282;32;34569;-76
2023/08/10 04:51:00;;;;;;;12.43;5.78;;;;;;;19.54;65.76;100706.16;5435023;32;34793;-77
2023/08/10 04:54:03;;;;;;;10.43;6.07;;;;;;;19.49;65.20;100709.97;5441454;32;34849;-76
2023/08/10 04:57:05;;;;;;;13.23;5.90;;;;;;;18.87;67.86;100711.69;5443157;32;35208;-76
2023/08/10 05:00:12;;;;;;;10.85;6.12;;;;;;;19.35;66.40;100699.47;5440743;32;34585;-75
2023/08/10 05:03:15;;;;;;;10.55;5.65;;;;;;;19.54;65.57;100704.34;5443496;32;34195;-69
2023/08/10 05:06:17;;;;;;;10.10;6.10;;;;;;;20.14;62.93;100702.69;5438429;32;34185;-70
2023/08/10 05:09:19;;;;;;;10.27;5.87;;;;;;;20.11;62.79;100714.44;5430785;32;34815;-75
2023/08/10 05:12:21;;;;;;;12.73;5.18;;;;;;;20.11;63.14;100717.09;5439945;32;34964;-76
2023/08/10 05:15:24;;;;;;;9.25;4.45;;;;;;;20.63;60.79;100715.06;5441110;32;34681;-70
2023/08/10 05:18:26;;;;;;;8.73;4.90;;;;;;;21.14;59.49;100720.88;5441431;32;34073;-69
2023/08/10 05:21:28;;;;;;;7.30;4.50;;;;;;;21.31;58.84;100719.59;5440600;32;35546;-69
2023/08/10 05:24:32;;;;;;;9.80;4.80;;;;;;;21.89;56.98;100718.44;5445688;32;35033;-78
2023/08/10 05:27:38;;;;;;;7.85;4.80;;;;;;;22.62;54.26;100721.41;5439252;32;34561;-71
2023/08/10 05:30:40;;;;;;;7.37;4.25;;;;;;;23.19;52.47;100723.66;5442443;32;34322;-69
2023/08/10 05:33:42;;;;;;;6.75;4.03;;;;;;;21.76;55.95;100719.56;5440808;32;34035;-70
2023/08/10 05:36:45;;;;;;;9.05;4.32;;;;;;;23.50;51.86;100718.28;5438229;32;34748;-68
2023/08/10 05:39:49;;;;;;;10.98;5.55;;;;;;;23.19;51.09;100726.34;5444922;32;34213;-75
2023/08/10 05:42:51;;;;;;;7.87;3.92;;;;;;;23.98;48.76;100723.84;5439584;32;34192;-70
2023/08/10 05:45:53;;;;;;;;;;;;;;;23.38;50.10;100730.09;5442662;32;34194;-80
2023/08/10 05:48:56;;;;;;;16.27;9.98;;;;;;;23.81;49.99;100720.97;5435691;32;36054;-80
2023/08/10 05:51:58;;;;;;;9.07;4.25;;;;;;;23.49;51.49;100738.03;5440024;32;34189;-70
2023/08/10 05:55:00;;;;;;;6.72;4.00;;;;;;;24.81;47.34;100730.56;5430308;32;34190;-73
2023/08/10 05:58:02;;;;;;;;;;;;;;;24.08;49.14;100737.28;5434956;32;34727;-71
2023/08/10 06:01:05;;;;;;;7.93;4.25;;;;;;;24.85;48.02;100734.63;5389805;32;34491;-77
2023/08/10 06:04:10;;;;;;;10.35;4.10;;;;;;;26.43;43.31;100732.88;5388206;32;34159;-71
2023/08/10 06:07:12;;;;;;;8.00;4.25;;;;;;;26.58;42.83;100728.63;5389497;32;35669;-68
2023/08/10 06:10:18;;;;;;;7.95;4.28;;;;;;;25.64;45.46;100731.63;5386834;32;33646;-81
2023/08/10 06:13:21;;;;;;;6.97;3.90;;;;;;;25.38;45.34;100730.59;5364753;32;34370;-72
2023/08/10 06:16:23;;;;;;;9.45;5.22;;;;;;;24.21;48.29;100740.53;5388668;32;35617;-71
2023/08/10 06:19:26;;;;;;;8.52;4.20;;;;;;;25.23;46.54;100732.91;5381291;32;33949;-74
2023/08/10 06:22:29;;;;;;;8.57;3.62;;;;;;;24.32;47.57;100735.06;5389548;32;34127;-74
2023/08/10 06:25:34;;;;;;;8.73;4.87;;;;;;;24.49;47.16;100740.75;5384123;32;35363;-78
2023/08/10 06:28:37;;;;;;;6.65;4.10;;;;;;;26.14;43.84;100736.59;5388947;32;34845;-76
2023/08/10 06:31:40;;;;;;;7.95;3.80;;;;;;;25.64;44.50;100725.37;5382692;32;33511;-74
2023/08/10 06:34:42;;;;;;;5.95;3.40;;;;;;;25.70;45.24;100724.78;5395062;32;33962;-72
2023/08/10 06:37:44;;;;;;;5.87;3.28;;;;;;;28.47;38.62;100723.22;5369201;32;36815;-73
2023/08/10 06:40:47;;;;;;;8.48;3.65;;;;;;;28.78;37.86;100723.38;5373573;32;31978;-69
2023/08/10 06:43:50;;;;;;;7.65;3.20;;;;;;;26.48;42.75;100732.44;5392194;32;34246;-72
2023/08/10 06:46:52;;;;;;;9.90;4.30;;;;;;;27.16;40.84;100733.47;5364290;32;35311;-71
2023/08/10 06:49:54;;;;;;;8.10;3.50;;;;;;;26.56;41.65;100733.34;5386675;32;35383;-76
2023/08/10 06:52:57;;;;;;;5.43;3.03;;;;;;;25.68;43.77;100737.53;5375456;32;34105;-69
2023/08/10 06:55:59;;;;;;;8.70;3.17;;;;;;;26.46;42.26;100744.19;5378488;32;34204;-71
2023/08/10 06:59:02;;;;;;;8.10;3.05;;;;;;;26.28;42.28;100743.31;5379549;32;35563;-68
2023/08/10 07:02:07;;;;;;;4.18;2.50;;;;;;;27.38;39.97;100748.31;5391460;32;35674;-76
2023/08/10 07:05:13;;;;;;;6.50;2.53;;;;;;;28.46;37.08;100749.37;5393598;32;35752;-69
2023/08/10 07:08:16;;;;;;;6.20;2.50;;;;;;;27.49;38.33;100758.81;5392218;32;34287;-79
2023/08/10 07:11:21;;;;;;;5.03;2.30;;;;;;;28.00;37.61;100753.47;5391612;32;36341;-71
2023/08/10 07:14:25;;;;;;;5.93;2.30;;;;;;;28.00;38.17;100754.31;5387666;32;34349;-73
2023/08/10 07:17:28;;;;;;;3.47;2.62;;;;;;;27.08;39.79;100757.72;5390383;32;34829;-71
2023/08/10 07:20:30;;;;;;;7.80;2.92;;;;;;;26.58;40.65;100762.81;5380413;32;34620;-73
2023/08/10 07:23:32;;;;;;;4.05;1.87;;;;;;;26.63;40.48;100757.81;5377591;32;34173;-71
2023/08/10 07:26:37;;;;;;;2.12;1.90;;;;;;;25.99;41.16;100761.50;5390873;32;34699;-70
2023/08/10 07:29:39;;;;;;;4.12;2.12;;;;;;;26.51;40.11;100767.12;5372142;32;35385;-71
2023/08/10 07:32:42;;;;;;;3.53;2.12;;;;;;;26.92;39.53;100766.50;5393912;32;34491;-71
2023/08/10 07:35:45;;;;;;;5.35;1.50;;;;;;;27.62;37.54;100763.75;5377952;32;34068;-71
2023/08/10 07:38:47;;;;;;;2.58;1.65;;;;;;;29.31;33.34;100760.72;5391730;32;36121;-73
2023/08/10 07:41:49;;;;;;;4.70;2.00;;;;;;;28.01;37.23;100766.81;5385922;32;37814;-70
2023/08/10 07:44:52;;;;;;;3.22;1.60;;;;;;;29.57;33.30;100763.22;5368335;32;34218;-73
2023/08/10 07:47:54;;;;;;;4.20;1.50;;;;;;;27.61;36.87;100767.47;5382037;32;34843;-73
2023/08/10 07:50:58;;;;;;;2.50;1.65;;;;;;;29.09;33.67;100762.25;5384564;32;34221;-69
2023/08/10 07:54:00;;;;;;;2.80;1.30;;;;;;;30.70;30.52;100755.50;5390585;32;34891;-70
2023/08/10 07:57:03;;;;;;;8.30;2.28;;;;;;;28.98;31.20;100754.53;5366655;32;34103;-71
2023/08/10 08:00:06;;;;;;;6.93;1.52;;;;;;;29.86;30.38;100756.31;5361584;32;34266;-71
2023/08/10 08:03:10;;;;;;;2.53;1.42;;;;;;;29.87;30.76;100752.59;5379545;32;33917;-68
2023/08/10 08:06:12;;;;;;;4.53;1.40;;;;;;;29.62;30.42;100759.97;5373510;32;33997;-67
2023/08/10 08:09:15;;;;;;;2.90;1.60;;;;;;;28.65;31.14;100769.00;5381676;32;34914;-71
2023/08/10 08:12:17;;;;;;;3.42;2.12;;;;;;;28.34;31.13;100769.66;5386931;32;34721;-73
2023/08/10 08:15:21;;;;;;;3.75;1.50;;;;;;;28.60;31.24;100762.25;5393100;32;34754;-71
2023/08/10 08:18:44;;;;;;;4.50;1.70;;;;;;;28.57;30.50;100776.09;5396886;32;35569;-69
2023/08/10 08:21:48;;;;;;;2.80;1.60;;;;;;;28.75;30.88;100757.03;5371998;32;34173;-75
2023/08/10 08:24:52;;;;;;;2.95;1.60;;;;;;;29.24;30.57;100761.56;5397068;32;34965;-75
2023/08/10 08:27:54;;;;;;;5.87;1.65;;;;;;;28.98;30.55;100767.19;5392271;32;34408;-77
2023/08/10 08:30:59;;;;;;;1.87;1.40;;;;;;;28.26;32.46;100773.13;5387237;32;34918;-74
2023/08/10 08:34:03;;;;;;;2.08;1.48;;;;;;;27.21;33.93;100782.41;5391371;32;35407;-75
2023/08/10 08:37:05;;;;;;;4.18;1.77;;;;;;;29.59;29.42;100763.03;5392764;32;35155;-90
2023/08/10 08:40:08;;;;;;;3.05;1.30;;;;;;;29.04;29.21;100770.03;5401033;32;35322;-72
2023/08/10 08:43:11;;;;;;;1.67;1.10;;;;;;;30.14;26.11;100759.41;5395847;32;35099;-72
2023/08/10 08:46:16;;;;;;;3.22;1.35;;;;;;;30.17;24.26;100769.91;5380527;32;34174;-73
2023/08/10 08:49:18;;;;;;;6.93;4.60;;;;;;;30.06;25.41;100773.84;5373819;32;34031;-74
2023/08/10 08:52:21;;;;;;;2.30;1.40;;;;;;;27.84;29.52;100784.00;5374892;32;34281;-73
2023/08/10 08:55:24;;;;;;;4.20;1.20;;;;;;;29.91;25.84;100776.47;5381667;32;35116;-74
2023/08/10 08:58:27;;;;;;;1.65;1.20;;;;;;;27.70;27.90;100779.22;5379246;32;36880;-74
2023/08/10 09:01:29;;;;;;;3.22;1.10;;;;;;;28.47;26.29;100778.12;5380487;32;36442;-75
2023/08/10 09:04:34;;;;;;;9.52;1.42;;;;;;;29.62;24.97;100776.22;5384950;32;34167;-74
2023/08/10 09:07:37;;;;;;;2.22;1.35;;;;;;;30.34;24.56;100774.22;5385837;32;34232;-74
2023/08/10 09:10:40;;;;;;;1.67;1.10;;;;;;;30.19;23.00;100770.59;5386182;32;35438;-69
2023/08/10 09:13:55;;;;;;;4.80;1.30;;;;;;;28.76;24.79;100780.34;5377046;32;35415;-72
2023/08/10 09:16:57;;;;;;;1.80;1.12;;;;;;;30.54;22.28;100773.75;5372348;32;33968;-72
2023/08/10 09:20:08;;;;;;;2.40;1.30;;;;;;;31.50;21.12;100762.25;5374771;32;33976;-73
2023/08/10 09:23:18;;;;;;;2.05;1.37;;;;;;;30.05;24.24;100768.59;5388413;32;34545;-74
2023/08/10 09:26:24;;;;;;;2.87;1.98;;;;;;;29.45;24.31;100767.28;5377663;32;34054;-75
2023/08/10 09:29:29;;;;;;;1.10;1.00;;;;;;;31.47;21.11;100765.31;5377986;32;33935;-78
2023/08/10 09:32:33;;;;;;;1.55;1.17;;;;;;;30.80;22.40;100774.25;5390813;32;34120;-71
2023/08/10 09:35:38;;;;;;;2.17;1.20;;;;;;;31.63;22.77;100767.88;5359701;32;35493;-71
2023/08/10 09:38:49;;;;;;;3.70;1.30;;;;;;;31.34;23.43;100765.97;5370532;32;33983;-70
2023/08/10 09:41:56;;;;;;;1.65;1.20;;;;;;;32.87;20.68;100764.09;5392593;32;34097;-73
2023/08/10 09:45:01;;;;;;;2.47;1.30;;;;;;;31.16;23.44;100760.84;5392645;32;35197;-74
2023/08/10 09:48:11;;;;;;;1.85;1.35;;;;;;;31.96;22.14;100757.44;5379200;32;35386;-80
2023/08/10 09:51:14;;;;;;;2.58;1.27;;;;;;;33.56;20.82;100754.34;5389759;32;33334;-75
2023/08/10 09:54:17;;;;;;;3.17;1.52;;;;;;;32.72;21.53;100757.88;5377085;32;33432;-71
2023/08/10 09:57:20;;;;;;;1.98;1.27;;;;;;;33.89;19.23;100754.50;5381846;32;36762;-69
2023/08/10 10:00:23;;;;;;;6.07;2.03;;;;;;;29.37;22.74;100775.44;5383778;32;35398;-70
2023/08/10 10:03:29;;;;;;;1.50;1.30;;;;;;;32.20;21.22;100763.56;5374763;32;35873;-68
2023/08/10 10:06:34;;;;;;;2.80;1.60;;;;;;;30.59;22.71;100768.63;5381019;32;34225;-77
2023/08/10 10:09:37;;;;;;;3.85;1.37;;;;;;;30.99;22.12;100762.91;5394252;32;34639;-74
2023/08/10 10:12:40;;;;;;;1.25;1.12;;;;;;;32.12;20.83;100756.38;5379147;32;36486;-75
2023/08/10 10:15:43;;;;;;;1.45;0.98;;;;;;;32.26;19.92;100760.06;5397628;32;34616;-75
2023/08/10 10:18:46;;;;;;;6.22;1.48;;;;;;;31.08;21.71;100750.09;5382461;32;34626;-70
2023/08/10 10:21:49;;;;;;;2.80;1.50;;;;;;;33.10;19.55;100752.13;5395514;32;33905;-79
2023/08/10 10:24:51;;;;;;;3.35;1.40;;;;;;;30.40;22.24;100754.53;5374366;32;34444;-71
2023/08/10 10:27:56;;;;;;;4.87;2.15;;;;;;;33.86;17.50;100738.53;5378835;32;34637;-74
2023/08/10 10:30:59;;;;;;;1.92;1.30;;;;;;;31.71;20.45;100756.03;5383547;32;37107;-72
2023/08/10 10:34:01;;;;;;;2.47;1.40;;;;;;;32.64;19.50;100752.53;5395332;32;34200;-69
2023/08/10 10:37:20;;;;;;;2.37;1.62;;;;;;;32.30;20.14;100754.06;5394297;32;35688;-73
2023/08/10 10:40:23;;;;;;;4.53;1.55;;;;;;;30.92;20.85;100747.53;5380359;32;33925;-73
2023/08/10 10:43:26;;;;;;;6.12;3.95;;;;;;;29.71;22.13;100755.37;5399345;32;35594;-76
2023/08/10 10:46:31;;;;;;;3.97;1.77;;;;;;;29.84;20.76;100752.97;5387248;32;36096;-76
2023/08/10 10:49:33;;;;;;;1.40;1.17;;;;;;;30.09;20.22;100740.97;5381369;32;34179;-75
2023/08/10 10:52:36;;;;;;;3.70;1.40;;;;;;;29.78;21.62;100737.41;5396050;32;35965;-76
2023/08/10 10:55:43;;;;;;;3.50;1.40;;;;;;;30.61;21.07;100734.88;5393060;32;35526;-74
2023/08/10 10:58:47;;;;;;;3.22;1.33;;;;;;;26.80;25.48;100748.03;5380319;32;34226;-75
2023/08/10 11:01:50;;;;;;;5.65;1.42;;;;;;;28.99;23.35;100731.03;5401242;32;36196;-68
2023/08/10 11:04:52;;;;;;;3.10;1.30;;;;;;;28.89;23.43;100728.44;5392010;32;34122;-79
2023/08/10 11:08:03;;;;;;;3.15;1.60;;;;;;;28.79;22.93;100744.03;5389543;32;35202;-76
2023/08/10 11:11:06;;;;;;;2.72;1.33;;;;;;;27.35;23.95;100743.22;5379070;32;35015;-71
2023/08/10 11:14:10;;;;;;;1.83;1.15;;;;;;;28.87;22.10;100733.19;5399586;32;34906;-74
